Time;durP1;ratioP1;P1;durP2;ratioP2;P2;SDS_P1;SDS_P2;PMS_P1;PMS_P2;Temp;Humidity;BMP_temperature;BMP_pressure;BME280_temperature;BME280_humidity;BME280_pressure;Samples;Min_cycle;Max_cycle;Signal;HPM_P1;HPM_P2
2023/10/16 00:00:29;;;;;;;16.05;2.38;;;6.80;99.90;;;;;;5121662;27;20487;-86
2023/10/16 00:02:59;;;;;;;18.65;2.00;;;6.80;99.90;;;;;;5134388;27;20049;-85
2023/10/16 00:05:33;;;;;;;7.55;1.77;;;6.80;99.90;;;;;;5139071;27;20487;-89
2023/10/16 00:08:05;;;;;;;9.27;2.05;;;6.80;99.90;;;;;;5138822;27;20027;-87
2023/10/16 00:10:32;;;;;;;4.35;1.60;;;6.80;99.90;;;;;;5128834;27;20407;-85
2023/10/16 00:13:05;;;;;;;10.13;2.08;;;6.80;99.90;;;;;;5131639;27;20099;-84
2023/10/16 00:15:49;;;;;;;12.50;1.92;;;6.80;99.90;;;;;;5130193;27;20088;-85
2023/10/16 00:18:18;;;;;;;15.90;2.05;;;6.70;99.90;;;;;;5125851;27;20527;-84
2023/10/16 00:20:47;;;;;;;11.13;1.60;;;6.70;99.90;;;;;;5133686;27;20027;-86
2023/10/16 00:23:13;;;;;;;5.70;1.65;;;6.70;99.90;;;;;;5123434;27;20038;-87
2023/10/16 00:25:40;;;;;;;13.60;1.70;;;6.70;99.90;;;;;;5136187;27;20037;-82
2023/10/16 00:28:10;;;;;;;10.93;1.80;;;6.70;99.90;;;;;;5132162;27;20019;-86
2023/10/16 00:30:40;;;;;;;5.63;1.33;;;6.70;99.90;;;;;;5121800;27;20049;-85
2023/10/16 00:33:10;;;;;;;16.75;2.47;;;6.70;99.90;;;;;;5132475;27;20098;-86
2023/10/16 00:35:39;;;;;;;14.88;1.98;;;6.70;99.90;;;;;;5126660;27;20026;-85
2023/10/16 00:38:12;;;;;;;14.48;2.20;;;6.70;99.90;;;;;;5137487;27;20026;-85
2023/10/16 00:40:40;;;;;;;10.65;1.60;;;6.70;99.90;;;;;;5131987;27;20479;-84
2023/10/16 00:43:12;;;;;;;5.22;1.30;;;6.60;99.90;;;;;;5128815;27;20185;-86
2023/10/16 00:45:48;;;;;;;11.52;3.25;;;6.60;99.90;;;;;;5130915;27;20129;-87
2023/10/16 00:48:16;;;;;;;8.32;2.30;;;6.50;99.90;;;;;;5133153;27;20412;-86
2023/10/16 00:50:49;;;;;;;5.70;2.08;;;6.50;99.90;;;;;;5130857;27;20027;-86
2023/10/16 00:53:23;;;;;;;11.48;1.85;;;6.50;99.90;;;;;;5133141;27;20477;-87
2023/10/16 00:55:51;;;;;;;7.45;1.85;;;6.50;99.90;;;;;;5120665;27;20118;-88
2023/10/16 00:58:17;;;;;;;8.60;1.90;;;6.50;99.90;;;;;;5129192;27;20126;-87
2023/10/16 01:00:46;;;;;;;12.07;2.47;;;6.50;99.90;;;;;;5137122;27;20079;-83
2023/10/16 01:03:13;;;;;;;8.52;2.13;;;6.50;99.90;;;;;;5115357;27;20026;-86
2023/10/16 01:05:42;;;;;;;13.90;2.58;;;6.60;99.90;;;;;;5127715;27;20034;-85
2023/10/16 01:08:10;;;;;;;6.93;1.70;;;6.60;99.90;;;;;;5126954;27;20019;-86
2023/10/16 01:10:40;;;;;;;13.40;1.65;;;6.60;99.90;;;;;;5129365;27;20021;-89
2023/10/16 01:13:13;;;;;;;9.18;1.60;;;6.60;99.90;;;;;;5110675;27;20042;-92
2023/10/16 01:15:50;;;;;;;11.55;2.60;;;6.60;99.90;;;;;;5126982;27;20027;-88
2023/10/16 01:18:17;;;;;;;10.90;1.92;;;6.70;99.90;;;;;;5123386;27;20298;-86
2023/10/16 01:20:48;;;;;;;10.35;2.05;;;6.70;99.90;;;;;;5124977;27;20015;-84
2023/10/16 01:23:25;;;;;;;9.80;2.45;;;6.70;99.90;;;;;;5135686;27;20026;-86
2023/10/16 01:25:51;;;;;;;9.77;2.13;;;6.70;99.90;;;;;;5127165;27;20469;-88
2023/10/16 01:28:19;;;;;;;8.75;1.80;;;6.70;99.90;;;;;;5117335;27;20026;-84
2023/10/16 01:30:47;;;;;;;13.40;2.75;;;6.70;99.90;;;;;;5130314;27;20021;-86
2023/10/16 01:33:16;;;;;;;11.77;1.85;;;6.70;99.90;;;;;;5135012;27;20042;-86
2023/10/16 01:35:43;;;;;;;6.90;2.00;;;6.70;99.90;;;;;;5129315;27;20026;-85
2023/10/16 01:38:16;;;;;;;21.42;4.35;;;6.70;99.90;;;;;;5122761;27;20053;-85
2023/10/16 01:41:13;;;;;;;8.43;1.88;;;6.70;99.90;;;;;;5121152;27;20114;-85
2023/10/16 01:43:38;;;;;;;;;;;6.70;99.90;;;;;;5126666;27;20104;-86
2023/10/16 01:46:08;;;;;;;6.28;2.90;;;6.70;99.90;;;;;;5126528;27;20040;-86
2023/10/16 01:48:49;;;;;;;8.95;2.10;;;6.70;99.90;;;;;;5136830;27;20137;-84
2023/10/16 01:51:19;;;;;;;14.75;2.38;;;6.60;99.90;;;;;;5125725;27;20054;-84
2023/10/16 01:53:47;;;;;;;7.50;1.67;;;6.60;99.90;;;;;;5130509;27;20038;-85
2023/10/16 01:56:13;;;;;;;16.35;3.28;;;6.60;99.90;;;;;;5133039;27;20120;-86
2023/10/16 01:58:43;;;;;;;14.98;1.98;;;6.60;99.90;;;;;;5130966;27;20446;-84
2023/10/16 02:01:20;;;;;;;9.18;2.13;;;6.60;99.90;;;;;;5127662;27;20023;-84
2023/10/16 02:03:49;;;;;;;10.80;2.00;;;6.60;99.90;;;;;;5122794;27;20011;-86
2023/10/16 02:06:18;;;;;;;15.98;2.55;;;6.60;99.90;;;;;;5130970;27;20031;-86
2023/10/16 02:08:46;;;;;;;6.72;1.85;;;6.50;99.90;;;;;;5129116;27;20213;-84
2023/10/16 02:11:12;;;;;;;8.82;1.75;;;6.60;99.90;;;;;;5126746;27;20514;-85
2023/10/16 02:13:43;;;;;;;7.85;2.17;;;6.60;99.90;;;;;;5129402;27;20019;-87
2023/10/16 02:16:12;;;;;;;9.63;3.15;;;6.60;99.90;;;;;;5125994;27;20023;-86
2023/10/16 02:18:40;;;;;;;26.08;2.92;;;6.50;99.90;;;;;;5116177;27;20438;-84
2023/10/16 02:21:12;;;;;;;7.90;1.85;;;6.50;99.90;;;;;;5135519;27;21011;-84
2023/10/16 02:23:46;;;;;;;11.90;2.22;;;6.50;99.90;;;;;;5135761;27;20107;-88
2023/10/16 02:26:18;;;;;;;11.25;2.55;;;6.60;99.90;;;;;;5122731;27;20050;-83
2023/10/16 02:28:46;;;;;;;11.52;2.05;;;6.60;99.90;;;;;;5125326;27;20070;-84
2023/10/16 02:31:19;;;;;;;13.15;3.20;;;6.60;99.90;;;;;;5127597;27;20027;-85
2023/10/16 02:34:09;;;;;;;15.02;2.28;;;6.60;99.90;;;;;;5132586;27;20074;-86
2023/10/16 02:36:35;;;;;;;13.15;2.38;;;6.50;99.90;;;;;;5132885;27;20064;-87
2023/10/16 02:39:07;;;;;;;12.20;3.83;;;6.60;99.90;;;;;;5126713;27;20023;-81
2023/10/16 02:41:33;;;;;;;14.43;2.30;;;6.60;99.90;;;;;;5128220;27;20023;-85
2023/10/16 02:44:02;;;;;;;8.40;2.10;;;6.60;99.90;;;;;;5120380;27;20440;-84
2023/10/16 02:46:28;;;;;;;11.40;3.00;;;6.50;99.90;;;;;;5119365;27;20469;-85
2023/10/16 02:48:54;;;;;;;11.15;2.38;;;6.50;99.90;;;;;;5132800;27;20024;-86
2023/10/16 02:51:20;;;;;;;11.95;2.47;;;6.60;99.90;;;;;;5132243;27;20056;-84
2023/10/16 02:53:49;;;;;;;9.48;2.08;;;6.60;99.90;;;;;;5125648;27;20023;-84
2023/10/16 02:56:15;;;;;;;9.40;2.22;;;6.60;99.90;;;;;;5119609;27;20890;-83
2023/10/16 02:59:07;;;;;;;10.25;2.35;;;6.50;99.90;;;;;;5127224;27;20034;-83
2023/10/16 03:01:27;;;;;;;10.43;2.47;;;6.50;99.90;;;;;;5127927;27;20103;-84
2023/10/16 03:03:53;;;;;;;9.00;2.70;;;6.60;99.90;;;;;;5133253;27;20057;-85
2023/10/16 03:06:22;;;;;;;16.80;2.65;;;6.50;99.90;;;;;;5123477;27;20034;-85
2023/10/16 03:08:51;;;;;;;11.07;2.60;;;6.50;99.90;;;;;;5126378;27;20042;-86
2023/10/16 03:11:20;;;;;;;15.80;2.40;;;6.50;99.90;;;;;;5133235;27;20129;-90
2023/10/16 03:13:47;;;;;;;14.80;2.78;;;6.50;99.90;;;;;;5101560;27;20038;-90
2023/10/16 03:16:18;;;;;;;10.13;1.92;;;6.50;99.90;;;;;;5113840;27;20536;-81
2023/10/16 03:18:47;;;;;;;10.23;2.30;;;6.50;99.90;;;;;;5122794;27;20015;-81
2023/10/16 03:23:49;;;;;;;7.22;2.65;;;6.60;99.90;;;;;;5130726;27;20110;-82
2023/10/16 03:26:27;;;;;;;9.47;2.43;;;6.60;99.90;;;;;;5126555;27;20027;-84
2023/10/16 03:28:53;;;;;;;15.07;3.42;;;6.60;99.90;;;;;;5123980;27;20027;-81
2023/10/16 03:31:23;;;;;;;6.85;2.03;;;6.60;99.90;;;;;;5127965;27;20018;-82
2023/10/16 03:33:50;;;;;;;7.90;2.05;;;6.60;99.90;;;;;;5113644;27;20563;-84
2023/10/16 03:36:17;;;;;;;6.65;1.90;;;6.60;99.90;;;;;;5119107;27;20067;-85
2023/10/16 03:38:46;;;;;;;13.40;3.08;;;6.60;99.90;;;;;;5115173;27;20366;-88
2023/10/16 03:41:19;;;;;;;6.40;2.25;;;6.60;99.90;;;;;;5126544;27;20478;-87
2023/10/16 03:43:58;;;;;;;5.68;2.00;;;6.60;99.90;;;;;;5119056;27;20257;-85
2023/10/16 03:46:26;;;;;;;15.13;2.40;;;6.60;99.90;;;;;;5126396;27;20409;-92
2023/10/16 03:48:52;;;;;;;11.50;2.00;;;6.50;99.90;;;;;;5112451;27;20288;-83
2023/10/16 03:51:18;;;;;;;6.43;2.15;;;6.60;99.90;;;;;;5119517;27;20408;-87
2023/10/16 03:53:45;;;;;;;6.65;2.38;;;6.60;99.90;;;;;;5117490;27;20185;-86
2023/10/16 03:56:13;;;;;;;11.35;2.25;;;6.70;99.90;;;;;;5126833;27;20106;-86
2023/10/16 03:58:44;;;;;;;8.38;2.58;;;6.70;99.90;;;;;;5128238;27;20019;-86
2023/10/16 04:01:10;;;;;;;10.02;2.47;;;6.70;99.90;;;;;;5126695;27;20029;-83
2023/10/16 04:03:56;;;;;;;7.85;2.60;;;6.70;99.90;;;;;;5129100;27;20011;-84
2023/10/16 04:06:23;;;;;;;2.15;1.75;;;6.70;99.90;;;;;;5126060;27;20031;-86
2023/10/16 04:08:50;;;;;;;7.40;1.90;;;6.70;99.90;;;;;;5123480;27;20035;-86
2023/10/16 04:11:17;;;;;;;14.70;2.10;;;6.70;99.90;;;;;;5127113;27;20418;-84
2023/10/16 04:13:47;;;;;;;16.38;3.55;;;6.70;99.90;;;;;;5123958;27;20390;-85
2023/10/16 04:21:53;;;;;;;6.78;2.80;;;6.70;99.90;;;;;;5121205;27;20038;-87
2023/10/16 04:29:45;;;;;;;10.15;2.75;;;6.70;99.90;;;;;;5119609;27;20030;-86
2023/10/16 04:34:53;;;;;;;9.82;2.40;;;6.70;99.90;;;;;;5122938;27;20030;-85
2023/10/16 04:37:36;;;;;;;10.07;3.38;;;6.70;99.90;;;;;;5127258;27;20343;-86
2023/10/16 04:45:25;;;;;;;6.22;3.10;;;6.70;99.90;;;;;;5123146;27;20064;-88
2023/10/16 04:50:40;;;;;;;16.42;3.20;;;6.60;99.90;;;;;;5120913;27;20073;-91
2023/10/16 04:53:11;;;;;;;7.70;3.10;;;6.60;99.90;;;;;;5130784;27;20019;-91
2023/10/16 04:58:59;;;;;;;10.38;2.78;;;6.60;99.90;;;;;;5126889;27;20022;-86
2023/10/16 05:03:56;;;;;;;9.80;2.90;;;6.60;99.90;;;;;;5127802;27;20038;-85
2023/10/16 05:06:38;;;;;;;13.68;2.90;;;6.60;99.90;;;;;;5128649;27;20467;-96
2023/10/16 06:14:09;;;;;;;17.65;4.45;;;6.60;99.90;;;;;;5129119;27;20398;-85
2023/10/16 06:14:34;;;;;;;13.65;3.83;;;6.80;99.90;;;;;;5128795;27;20107;-84
2023/10/16 06:17:12;;;;;;;10.65;3.50;;;6.80;99.90;;;;;;5124410;27;20031;-85
2023/10/16 06:19:42;;;;;;;8.82;3.80;;;6.80;99.90;;;;;;5124332;27;20055;-88
2023/10/16 06:22:12;;;;;;;16.73;3.90;;;6.80;99.90;;;;;;5131280;27;20129;-85
2023/10/16 06:24:47;;;;;;;9.43;4.03;;;6.80;99.90;;;;;;5134157;27;20084;-85
2023/10/16 06:27:19;;;;;;;11.35;3.38;;;6.80;99.90;;;;;;5128546;27;20375;-84
2023/10/16 06:29:51;;;;;;;23.40;6.88;;;6.80;99.90;;;;;;5126789;27;20019;-85
2023/10/16 06:32:35;;;;;;;8.20;3.05;;;6.90;99.90;;;;;;5124459;27;20168;-85
2023/10/16 06:35:01;;;;;;;13.75;3.83;;;6.90;99.90;;;;;;5122239;27;20426;-85
2023/10/16 06:37:33;;;;;;;12.98;3.30;;;6.90;99.90;;;;;;5129208;27;20023;-88
2023/10/16 06:40:09;;;;;;;8.75;3.00;;;6.90;99.90;;;;;;5122844;27;20442;-85
2023/10/16 06:42:35;;;;;;;11.30;3.33;;;7.00;99.90;;;;;;5118917;27;20019;-85
2023/10/16 06:45:08;;;;;;;10.10;3.00;;;7.00;99.90;;;;;;5124239;27;20032;-85
2023/10/16 06:47:36;;;;;;;13.30;3.40;;;7.10;99.90;;;;;;5122782;27;20118;-86
2023/10/16 06:52:47;;;;;;;10.50;2.80;;;7.10;99.90;;;;;;5117101;27;20033;-85
2023/10/16 06:55:13;;;;;;;10.43;3.22;;;7.20;99.90;;;;;;5104842;27;20027;-85
2023/10/16 06:57:39;;;;;;;10.00;3.33;;;7.30;99.90;;;;;;5125860;27;20042;-86
2023/10/16 07:00:08;;;;;;;9.35;3.60;;;7.30;99.90;;;;;;5130152;27;20038;-86
2023/10/16 07:02:36;;;;;;;9.55;3.40;;;7.30;99.90;;;;;;5116159;27;20024;-85
2023/10/16 07:05:05;;;;;;;8.30;3.95;;;7.40;99.90;;;;;;5120504;27;20368;-85
2023/10/16 07:07:31;;;;;;;12.70;3.72;;;7.40;99.90;;;;;;5123878;27;20363;-89
2023/10/16 07:09:56;;;;;;;10.30;2.90;;;7.50;99.90;;;;;;5119708;27;20041;-85
2023/10/16 07:12:22;;;;;;;10.70;3.30;;;7.50;99.90;;;;;;5124942;27;20473;-85
2023/10/16 07:14:55;;;;;;;10.32;3.15;;;7.60;99.90;;;;;;5117095;27;20028;-85
2023/10/16 07:17:24;;;;;;;7.82;2.67;;;7.60;99.90;;;;;;5123960;27;20067;-85
2023/10/16 07:19:59;;;;;;;10.65;3.03;;;7.60;99.90;;;;;;5127348;27;20019;-85
2023/10/16 07:22:31;;;;;;;4.15;2.60;;;7.60;99.90;;;;;;5123391;27;20450;-86
2023/10/16 07:27:47;;;;;;;11.80;3.40;;;7.70;99.90;;;;;;5122921;27;20031;-85
2023/10/16 07:30:21;;;;;;;5.40;2.42;;;7.80;99.90;;;;;;5115690;27;20455;-87
2023/10/16 07:32:48;;;;;;;5.57;2.63;;;7.80;99.90;;;;;;5123794;27;20046;-84
2023/10/16 07:35:17;;;;;;;7.00;2.85;;;8.00;99.90;;;;;;5117131;27;20061;-86
2023/10/16 07:37:49;;;;;;;13.63;3.10;;;7.90;99.90;;;;;;5130326;27;20119;-86
2023/10/16 07:40:20;;;;;;;6.50;2.65;;;8.00;99.90;;;;;;5122031;27;20031;-84
2023/10/16 07:42:52;;;;;;;10.27;2.80;;;8.00;99.90;;;;;;5129070;27;20427;-86
2023/10/16 07:45:21;;;;;;;13.90;2.60;;;8.00;99.90;;;;;;5123649;27;21304;-86
2023/10/16 07:47:48;;;;;;;6.68;2.97;;;8.10;99.90;;;;;;5116583;27;20069;-85
2023/10/16 07:50:15;;;;;;;8.27;2.47;;;8.10;99.90;;;;;;5126721;27;20031;-85
2023/10/16 07:52:42;;;;;;;7.97;2.35;;;8.10;99.90;;;;;;5116396;27;20015;-83
2023/10/16 07:55:18;;;;;;;10.73;2.65;;;8.20;99.90;;;;;;5126706;27;20614;-87
2023/10/16 07:57:51;;;;;;;8.27;1.95;;;8.30;99.90;;;;;;5104495;28;20027;-85
2023/10/16 08:00:25;;;;;;;8.50;1.98;;;8.30;99.90;;;;;;5114034;27;20023;-87
2023/10/16 08:02:58;;;;;;;5.57;1.88;;;8.40;99.90;;;;;;5124447;27;20081;-85
2023/10/16 08:05:26;;;;;;;4.75;1.88;;;8.40;99.90;;;;;;5133318;27;20471;-85
2023/10/16 08:07:53;;;;;;;6.13;1.98;;;8.40;99.90;;;;;;5122975;27;20019;-88
2023/10/16 08:13:11;;;;;;;3.30;1.73;;;8.50;99.90;;;;;;5123355;27;20301;-86
2023/10/16 08:15:38;;;;;;;8.15;1.75;;;8.60;99.90;;;;;;5130202;27;20391;-85
2023/10/16 08:18:10;;;;;;;4.32;1.83;;;8.60;99.90;;;;;;5122173;27;20084;-86
2023/10/16 08:23:21;;;;;;;8.07;2.60;;;8.60;99.90;;;;;;5132795;27;20026;-86
2023/10/16 08:25:47;;;;;;;6.75;1.83;;;8.70;99.90;;;;;;5111103;27;20039;-86
2023/10/16 08:28:24;;;;;;;5.28;1.65;;;8.60;99.90;;;;;;5134999;27;20023;-86
2023/10/16 08:30:54;;;;;;;6.25;2.55;;;8.80;99.90;;;;;;5133014;27;20080;-87
2023/10/16 08:33:28;;;;;;;4.93;1.40;;;8.80;99.90;;;;;;5143033;27;20039;-87
2023/10/16 08:35:58;;;;;;;2.78;1.58;;;8.90;99.90;;;;;;5140930;27;20027;-89
2023/10/16 08:38:26;;;;;;;6.15;1.80;;;8.80;99.90;;;;;;5146114;27;20046;-86
2023/10/16 08:40:57;;;;;;;5.70;1.40;;;8.90;99.90;;;;;;5134412;27;20102;-86
2023/10/16 08:43:39;;;;;;;7.97;1.77;;;8.80;99.90;;;;;;5129200;27;20031;-86
2023/10/16 08:46:18;;;;;;;7.05;2.00;;;8.90;99.90;;;;;;5140733;27;20041;-89
2023/10/16 08:48:48;;;;;;;2.75;1.92;;;8.90;99.90;;;;;;5135327;27;20139;-91
2023/10/16 08:51:16;;;;;;;3.55;1.48;;;8.90;99.90;;;;;;5132313;27;20079;-91
2023/10/16 08:53:46;;;;;;;4.35;1.55;;;9.00;99.90;;;;;;5144240;27;20470;-87
2023/10/16 08:56:17;;;;;;;6.80;1.70;;;9.00;99.90;;;;;;5131646;27;20029;-86
2023/10/16 08:58:44;;;;;;;4.75;1.45;;;9.10;99.90;;;;;;5136202;27;20806;-88
2023/10/16 09:01:12;;;;;;;8.77;1.77;;;9.00;99.90;;;;;;5134838;27;20076;-86
2023/10/16 09:03:50;;;;;;;2.55;1.30;;;9.10;99.90;;;;;;5134381;27;20023;-85
2023/10/16 09:06:22;;;;;;;5.20;1.00;;;9.10;99.90;;;;;;5131839;27;20084;-86
2023/10/16 09:08:49;;;;;;;1.00;1.00;;;9.10;99.90;;;;;;5134450;27;20031;-92
2023/10/16 09:11:16;;;;;;;4.80;1.00;;;9.20;99.90;;;;;;5107234;27;20054;-87
2023/10/16 09:13:46;;;;;;;5.68;1.27;;;9.20;99.90;;;;;;5126852;27;20029;-88
2023/10/16 09:16:13;;;;;;;4.55;1.23;;;9.30;99.90;;;;;;5130940;27;20031;-85
2023/10/16 09:18:39;;;;;;;2.42;1.10;;;9.30;99.90;;;;;;5118628;27;20032;-87
2023/10/16 09:21:13;;;;;;;8.55;1.35;;;9.20;99.90;;;;;;5133695;27;20054;-85
2023/10/16 09:23:49;;;;;;;7.15;1.08;;;9.30;99.90;;;;;;5135467;27;20030;-84
2023/10/16 09:26:14;;;;;;;6.35;1.30;;;9.20;99.90;;;;;;5137156;27;20027;-86
2023/10/16 09:28:41;;;;;;;0.80;0.80;;;9.30;99.90;;;;;;5130004;27;20051;-85
2023/10/16 09:31:07;;;;;;;2.03;1.00;;;9.30;99.90;;;;;;5127405;27;20027;-86
2023/10/16 09:33:35;;;;;;;2.97;0.98;;;9.40;99.90;;;;;;5138891;27;20395;-85
2023/10/16 09:36:17;;;;;;;1.67;1.02;;;9.40;99.90;;;;;;5140817;27;20030;-88
2023/10/16 09:38:53;;;;;;;4.25;1.73;;;9.50;99.90;;;;;;5128155;27;20108;-88
2023/10/16 09:43:56;;;;;;;3.20;2.63;;;9.60;99.90;;;;;;5133876;27;20034;-86
2023/10/16 09:49:13;;;;;;;7.88;2.58;;;9.60;99.90;;;;;;5134721;27;20479;-89
2023/10/16 09:51:40;;;;;;;3.15;1.80;;;9.60;99.90;;;;;;5131139;27;20027;-87
2023/10/16 09:54:13;;;;;;;2.50;0.80;;;9.60;99.90;;;;;;5133871;27;20117;-87
2023/10/16 09:56:44;;;;;;;3.47;1.40;;;9.70;99.90;;;;;;5136687;27;20471;-86
2023/10/16 09:59:33;;;;;;;4.38;1.20;;;9.80;99.90;;;;;;5135386;27;20085;-86
2023/10/16 10:02:07;;;;;;;2.72;1.10;;;9.90;99.90;;;;;;5114469;27;20385;-86
2023/10/16 10:04:38;;;;;;;2.90;1.63;;;9.90;99.90;;;;;;5133280;27;20467;-84
2023/10/16 10:07:11;;;;;;;2.20;0.80;;;9.90;99.90;;;;;;5129337;27;20027;-87
2023/10/16 10:09:42;;;;;;;0.60;0.60;;;9.90;99.90;;;;;;5127990;27;20128;-85
2023/10/16 10:12:42;;;;;;;1.15;0.90;;;9.90;99.90;;;;;;5137085;27;20076;-88
2023/10/16 10:15:23;;;;;;;5.40;3.17;;;9.80;99.90;;;;;;5125496;27;20034;-90
2023/10/16 10:17:54;;;;;;;1.67;1.30;;;9.90;99.90;;;;;;5139939;27;20019;-92
2023/10/16 10:20:25;;;;;;;2.20;1.73;;;9.80;99.90;;;;;;5131383;27;20065;-86
2023/10/16 10:22:58;;;;;;;2.25;1.60;;;9.80;99.90;;;;;;5130486;27;20110;-86
2023/10/16 10:25:35;;;;;;;1.35;0.70;;;9.80;99.90;;;;;;5119819;27;20122;-85
2023/10/16 10:28:15;;;;;;;3.33;2.15;;;9.90;99.90;;;;;;5125317;27;20023;-88
2023/10/16 10:30:45;;;;;;;2.45;1.02;;;9.90;99.90;;;;;;5122465;27;20445;-86
2023/10/16 10:33:36;;;;;;;7.40;3.70;;;9.80;99.90;;;;;;5124904;27;20134;-88
2023/10/16 10:36:28;;;;;;;7.05;3.72;;;9.90;99.90;;;;;;5123569;27;20041;-89
2023/10/16 10:39:25;;;;;;;6.22;2.70;;;9.90;99.90;;;;;;5133973;27;20033;-89
2023/10/16 10:41:55;;;;;;;8.60;3.47;;;9.90;99.90;;;;;;5091805;27;20126;-87
2023/10/16 10:44:31;;;;;;;2.30;1.42;;;10.00;99.90;;;;;;5104578;27;20480;-94
2023/10/16 10:47:00;;;;;;;2.00;1.00;;;9.90;99.90;;;;;;5124113;27;20118;-86
2023/10/16 10:49:33;;;;;;;5.05;2.70;;;9.90;99.90;;;;;;5129055;27;20070;-86
2023/10/16 10:52:06;;;;;;;3.03;1.58;;;10.00;99.90;;;;;;5127054;27;20027;-87
2023/10/16 10:54:42;;;;;;;1.88;1.38;;;9.90;99.90;;;;;;5132471;27;20142;-87
2023/10/16 10:57:19;;;;;;;5.47;2.90;;;9.90;99.90;;;;;;5123902;27;20031;-87
2023/10/16 10:59:47;;;;;;;3.92;2.60;;;9.90;99.90;;;;;;5135553;27;20087;-89
2023/10/16 11:04:53;;;;;;;3.90;1.40;;;10.00;99.90;;;;;;5117579;27;20341;-88
2023/10/16 11:07:28;;;;;;;2.22;0.95;;;10.00;99.90;;;;;;5133797;27;20499;-86
2023/10/16 11:09:57;;;;;;;2.17;1.33;;;10.10;99.90;;;;;;5127388;27;20390;-87
2023/10/16 11:12:30;;;;;;;10.88;2.78;;;10.10;99.90;;;;;;5119158;27;20041;-86
2023/10/16 11:14:57;;;;;;;4.32;1.40;;;10.10;99.90;;;;;;5128762;27;20363;-87
2023/10/16 11:17:33;;;;;;;0.98;0.80;;;10.10;99.90;;;;;;5133979;27;20023;-90
2023/10/16 11:20:12;;;;;;;2.67;1.10;;;10.10;99.90;;;;;;5125434;27;20030;-88
2023/10/16 11:22:43;;;;;;;1.52;0.90;;;10.10;99.90;;;;;;5132232;27;20493;-87
2023/10/16 11:25:13;;;;;;;5.13;1.00;;;10.00;99.90;;;;;;5126151;27;20031;-88
2023/10/16 11:27:42;;;;;;;1.95;1.40;;;10.00;99.90;;;;;;5129268;27;20031;-87
2023/10/16 11:30:11;;;;;;;3.38;1.55;;;10.10;99.90;;;;;;5118153;27;20340;-87
2023/10/16 11:32:48;;;;;;;3.22;2.10;;;10.00;99.90;;;;;;5121133;27;20043;-87
2023/10/16 11:35:17;;;;;;;3.33;1.38;;;10.00;99.90;;;;;;5123421;27;20499;-87
2023/10/16 11:37:50;;;;;;;4.57;2.78;;;10.00;99.90;;;;;;5099533;27;20117;-88
2023/10/16 11:40:18;;;;;;;5.70;1.52;;;10.00;99.90;;;;;;5122059;27;20239;-88
2023/10/16 11:42:48;;;;;;;3.13;1.48;;;10.10;99.90;;;;;;5125015;27;20019;-88
2023/10/16 11:45:20;;;;;;;1.60;0.75;;;10.00;99.90;;;;;;5119125;27;20054;-88
2023/10/16 11:48:18;;;;;;;3.60;0.80;;;10.00;99.90;;;;;;5128906;27;20050;-89
2023/10/16 11:50:41;;;;;;;;;;;10.00;99.90;;;;;;5130164;27;20243;-88
2023/10/16 11:53:09;;;;;;;1.27;1.15;;;10.10;99.90;;;;;;5126990;27;19914;-90
2023/10/16 11:55:38;;;;;;;2.08;1.33;;;10.10;99.90;;;;;;5129035;27;20030;-87
2023/10/16 11:58:08;;;;;;;6.22;1.10;;;10.10;99.90;;;;;;5130234;27;20383;-90
2023/10/16 12:00:35;;;;;;;4.63;0.98;;;10.10;99.90;;;;;;5133074;27;20019;-87
2023/10/16 12:03:07;;;;;;;3.40;1.80;;;10.10;99.90;;;;;;5107354;27;20019;-88
2023/10/16 12:05:42;;;;;;;2.42;1.25;;;10.10;99.90;;;;;;5126351;27;20084;-89
2023/10/16 12:08:09;;;;;;;8.30;1.50;;;10.10;99.90;;;;;;5127749;27;20027;-89
2023/10/16 12:10:37;;;;;;;1.38;1.00;;;10.10;99.90;;;;;;5129128;27;20061;-90
2023/10/16 12:13:03;;;;;;;3.97;0.85;;;10.10;99.90;;;;;;5128180;27;20039;-87
2023/10/16 12:15:31;;;;;;;5.22;1.27;;;10.00;99.90;;;;;;5128264;27;20395;-87
2023/10/16 12:17:57;;;;;;;2.85;1.20;;;10.00;99.90;;;;;;5122987;27;20046;-89
2023/10/16 12:20:27;;;;;;;2.95;1.42;;;10.00;99.90;;;;;;5121113;27;20326;-88
2023/10/16 12:22:56;;;;;;;2.72;1.90;;;9.90;99.90;;;;;;5119832;27;20050;-88
2023/10/16 12:25:23;;;;;;;6.70;2.40;;;9.90;99.90;;;;;;5132862;27;20062;-88
2023/10/16 12:27:50;;;;;;;9.55;3.38;;;10.00;99.90;;;;;;5135860;27;20047;-88
2023/10/16 12:30:16;;;;;;;4.13;2.47;;;10.00;99.90;;;;;;5129249;27;20027;-87
2023/10/16 12:32:42;;;;;;;1.45;1.20;;;9.90;99.90;;;;;;5129583;27;20449;-87
2023/10/16 12:35:08;;;;;;;4.65;1.80;;;9.90;99.90;;;;;;5133114;27;20039;-88
2023/10/16 12:37:34;;;;;;;4.65;2.40;;;9.90;99.90;;;;;;5128474;27;20390;-88
2023/10/16 12:40:24;;;;;;;4.18;1.90;;;9.90;99.90;;;;;;5122604;27;20027;-89
2023/10/16 12:42:47;;;;;;;4.07;1.88;;;10.00;99.90;;;;;;5130389;27;20019;-88
2023/10/16 12:45:13;;;;;;;5.70;1.33;;;9.90;99.90;;;;;;5122825;27;20050;-88
2023/10/16 12:47:38;;;;;;;4.72;1.55;;;10.00;99.90;;;;;;5122054;27;20035;-88
2023/10/16 12:50:05;;;;;;;2.35;1.48;;;9.90;99.90;;;;;;5130636;27;20036;-92
2023/10/16 12:52:31;;;;;;;7.00;3.00;;;9.90;99.90;;;;;;5104947;27;20035;-91
2023/10/16 12:55:00;;;;;;;7.47;2.45;;;10.00;99.90;;;;;;5124900;27;20098;-88
2023/10/16 12:57:27;;;;;;;8.20;1.85;;;10.00;99.90;;;;;;5120950;27;20038;-88
2023/10/16 12:59:56;;;;;;;3.50;2.53;;;9.90;99.90;;;;;;5124525;27;20031;-88
2023/10/16 13:02:27;;;;;;;22.08;12.13;;;9.90;99.90;;;;;;5120526;27;20084;-91
2023/10/16 13:04:53;;;;;;;16.83;8.02;;;10.00;99.90;;;;;;5115830;27;20041;-89
2023/10/16 13:07:21;;;;;;;5.25;3.70;;;9.90;99.90;;;;;;5123377;27;20118;-88
2023/10/16 13:09:47;;;;;;;7.53;3.58;;;9.90;99.90;;;;;;5119786;27;20039;-88
2023/10/16 13:12:13;;;;;;;9.52;3.80;;;9.90;99.90;;;;;;5133105;27;20038;-89
2023/10/16 13:14:40;;;;;;;2.67;1.75;;;9.90;99.90;;;;;;5133291;27;20023;-88
2023/10/16 13:17:08;;;;;;;2.97;1.73;;;10.00;99.90;;;;;;5133642;27;20027;-89
2023/10/16 13:19:34;;;;;;;4.82;1.75;;;10.00;99.90;;;;;;5121298;27;20117;-89
2023/10/16 13:22:09;;;;;;;1.50;1.40;;;10.10;99.90;;;;;;5130770;27;20022;-88
2023/10/16 13:24:35;;;;;;;;;;;10.10;99.90;;;;;;5128448;27;20051;-88
2023/10/16 13:27:01;;;;;;;5.57;1.80;;;10.20;99.90;;;;;;5129513;27;19911;-88
2023/10/16 13:29:27;;;;;;;4.43;1.45;;;10.30;99.90;;;;;;5135757;27;20030;-91
2023/10/16 13:31:56;;;;;;;4.10;1.33;;;10.40;99.90;;;;;;5125897;27;20023;-89
2023/10/16 13:34:22;;;;;;;4.70;1.30;;;10.40;99.90;;;;;;5125062;27;20039;-89
2023/10/16 13:37:00;;;;;;;7.57;3.10;;;10.40;99.90;;;;;;5123184;27;20030;-90
2023/10/16 13:39:38;;;;;;;6.00;2.65;;;10.50;99.90;;;;;;5121409;27;20039;-89
2023/10/16 13:42:08;;;;;;;5.82;1.95;;;10.50;99.90;;;;;;5126550;27;20238;-89
2023/10/16 13:44:35;;;;;;;8.23;3.72;;;10.50;99.90;;;;;;5127926;27;20035;-88
2023/10/16 13:47:06;;;;;;;2.30;1.70;;;10.50;99.90;;;;;;5126279;27;20072;-88
2023/10/16 13:49:36;;;;;;;6.22;2.22;;;10.50;99.90;;;;;;5123346;27;20054;-89
2023/10/16 13:52:09;;;;;;;6.85;2.92;;;10.40;99.90;;;;;;5125030;27;20055;-89
2023/10/16 13:54:40;;;;;;;7.57;3.63;;;10.40;99.90;;;;;;5116107;27;20471;-89
2023/10/16 13:57:07;;;;;;;7.45;2.35;;;10.40;99.90;;;;;;5125637;27;20076;-88
2023/10/16 13:59:35;;;;;;;2.40;1.50;;;10.40;99.90;;;;;;5122260;27;20042;-89
2023/10/16 14:02:05;;;;;;;1.20;1.10;;;10.30;99.90;;;;;;5130643;27;20031;-89
2023/10/16 14:04:33;;;;;;;1.42;1.02;;;10.30;99.90;;;;;;5122954;27;20058;-88
2023/10/16 14:06:59;;;;;;;3.05;1.38;;;10.30;99.90;;;;;;5125570;27;20027;-88
2023/10/16 14:09:28;;;;;;;3.20;1.48;;;10.30;99.90;;;;;;5132204;27;20027;-88
2023/10/16 14:11:58;;;;;;;0.90;0.90;;;10.30;99.90;;;;;;5124524;27;20027;-88
2023/10/16 14:14:26;;;;;;;1.00;0.70;;;10.30;99.90;;;;;;5122647;27;20023;-88
2023/10/16 14:17:03;;;;;;;1.92;0.80;;;10.30;99.90;;;;;;5123602;27;20062;-89
2023/10/16 14:19:32;;;;;;;3.60;0.80;;;10.30;99.90;;;;;;5121430;27;20118;-88
2023/10/16 14:21:59;;;;;;;6.55;1.20;;;10.30;99.90;;;;;;5119419;27;20054;-89
2023/10/16 14:24:26;;;;;;;1.58;0.90;;;10.30;99.90;;;;;;5120509;27;20026;-89
2023/10/16 14:26:55;;;;;;;2.03;1.40;;;10.30;99.90;;;;;;5132865;27;20486;-89
2023/10/16 14:29:21;;;;;;;1.20;1.10;;;10.30;99.90;;;;;;5138439;27;20039;-89
2023/10/16 14:31:50;;;;;;;2.35;1.38;;;10.30;99.90;;;;;;5118721;27;20510;-89
2023/10/16 14:34:21;;;;;;;3.55;1.30;;;10.30;99.90;;;;;;5124171;27;20083;-88
2023/10/16 14:36:48;;;;;;;3.15;1.02;;;10.20;99.90;;;;;;5123889;27;20031;-88
2023/10/16 14:39:14;;;;;;;1.48;0.77;;;10.20;99.90;;;;;;5124285;27;20378;-89
2023/10/16 14:41:44;;;;;;;5.00;2.08;;;10.20;99.90;;;;;;5125936;27;20023;-89
2023/10/16 14:44:13;;;;;;;1.83;1.17;;;10.30;99.90;;;;;;5128048;27;20027;-89
2023/10/16 14:46:39;;;;;;;2.17;1.50;;;10.30;99.90;;;;;;5127794;27;20027;-87
2023/10/16 14:49:09;;;;;;;1.75;1.10;;;10.30;99.90;;;;;;5134633;27;20087;-89
2023/10/16 14:51:39;;;;;;;2.80;1.45;;;10.20;99.90;;;;;;5135841;27;20023;-89
2023/10/16 14:54:10;;;;;;;4.18;1.27;;;10.20;99.90;;;;;;5115831;27;20108;-89
2023/10/16 14:56:37;;;;;;;1.95;1.30;;;10.20;99.90;;;;;;5138442;27;20384;-89
2023/10/16 14:59:09;;;;;;;4.03;2.00;;;10.20;99.90;;;;;;5134020;27;20038;-89
2023/10/16 15:01:36;;;;;;;2.65;1.80;;;10.20;99.90;;;;;;5129651;27;20031;-90